createdAt,value
2022-12-06T00:01:44.288Z,101050.03
2022-12-06T00:04:15.559Z,101052.03
2022-12-06T00:06:48.747Z,101049.44
2022-12-06T00:09:30.003Z,101050.34
2022-12-06T00:11:58.322Z,101044.25
2022-12-06T00:14:27.073Z,101051.28
2022-12-06T00:16:56.974Z,101048.69
2022-12-06T00:19:24.705Z,101047.22
2022-12-06T00:21:51.744Z,101036.41
2022-12-06T00:24:23.754Z,101040.06
2022-12-06T00:26:51.074Z,101044.13
2022-12-06T00:29:23.061Z,101037.25
2022-12-06T00:31:51.586Z,101033.66
2022-12-06T00:34:18.632Z,101043.34
2022-12-06T00:36:47.327Z,101033.56
2022-12-06T00:39:18.390Z,101027.25
2022-12-06T00:41:46.279Z,101031.66
2022-12-06T00:44:13.405Z,101028.22
2022-12-06T00:46:40.459Z,101014.97
2022-12-06T00:49:09.665Z,101020.97
2022-12-06T00:51:38.526Z,101023.44
2022-12-06T00:54:07.862Z,101022.56
2022-12-06T00:56:37.715Z,101017.31
2022-12-06T00:59:06.813Z,101018.09
2022-12-06T01:01:36.198Z,101022.34
2022-12-06T01:04:07.195Z,101025.03
2022-12-06T01:06:37.568Z,101017.25
2022-12-06T01:09:09.463Z,101025.03
2022-12-06T01:11:36.853Z,101028.53
2022-12-06T01:14:03.897Z,101018.84
2022-12-06T01:16:32.546Z,101018.09
2022-12-06T01:19:05.428Z,101019.91
2022-12-06T01:21:32.282Z,101025.88
2022-12-06T01:23:59.392Z,101024.06
2022-12-06T01:26:33.902Z,101022.34
2022-12-06T01:29:02.346Z,101022.44
2022-12-06T01:31:37.272Z,101030.59
2022-12-06T01:34:09.882Z,101022.75
2022-12-06T01:36:36.560Z,101014.22
2022-12-06T01:39:06.922Z,101001.09
2022-12-06T01:41:34.507Z,101008.88
2022-12-06T01:44:01.229Z,101003.63
2022-12-06T01:46:45.386Z,101002.69
2022-12-06T01:49:11.956Z,101002.69
2022-12-06T01:51:51.475Z,100999.44
2022-12-06T01:54:23.331Z,101004.78
2022-12-06T01:56:55.780Z,100997.84
2022-12-06T01:59:25.775Z,100998.91
2022-12-06T02:01:54.203Z,101001.69
2022-12-06T02:04:23.183Z,100994.09
2022-12-06T02:06:54.537Z,100996.53
2022-12-06T02:09:24.163Z,100990.34
2022-12-06T02:11:50.731Z,100996.63
2022-12-06T02:14:32.466Z,100990.56
2022-12-06T02:17:56.459Z,100991.41
2022-12-06T02:20:49.954Z,100988.63
2022-12-06T02:24:02.034Z,100976.25
2022-12-06T02:26:48.966Z,100980.63
2022-12-06T02:29:59.856Z,100987.69
2022-12-06T02:32:55.290Z,100977.03
2022-12-06T02:35:38.890Z,100983.97
2022-12-06T02:38:19.089Z,100966.25
2022-12-06T02:40:59.194Z,100971.38
2022-12-06T02:43:40.268Z,100968.03
2022-12-06T02:46:11.156Z,100964.34
2022-12-06T02:48:41.695Z,100964.44
2022-12-06T02:51:17.080Z,100968.78
2022-12-06T02:53:53.062Z,100962.59
2022-12-06T02:56:20.570Z,100970.53
2022-12-06T02:58:47.746Z,100968.72
2022-12-06T03:01:20.416Z,100966.03
2022-12-06T03:03:56.093Z,100963.28
2022-12-06T03:06:46.594Z,100963.28
2022-12-06T03:09:50.748Z,100962.31
2022-12-06T03:12:39.587Z,100959.63
2022-12-06T03:15:26.701Z,100958.78
2022-12-06T03:18:22.258Z,100952.59
2022-12-06T03:21:00.821Z,100948.66
2022-12-06T03:23:40.970Z,100961.91
2022-12-06T03:26:16.788Z,100956.56
2022-12-06T03:28:50.486Z,100943.41
2022-12-06T03:31:17.572Z,100944.16
2022-12-06T03:34:13.865Z,100942.25
2022-12-06T03:36:46.780Z,100940.53
2022-12-06T03:39:28.402Z,100941.38
2022-12-06T03:41:59.893Z,100941.38
2022-12-06T03:44:27.331Z,100940.53
2022-12-06T03:47:16.050Z,100933.47
2022-12-06T03:49:58.891Z,100940.63
2022-12-06T03:52:29.515Z,100937.78
2022-12-06T03:54:56.450Z,100938.72
2022-12-06T03:57:23.550Z,100934.44
2022-12-06T03:59:52.863Z,100934.34
2022-12-06T04:02:19.591Z,100934.22
2022-12-06T04:04:46.735Z,100932.44
2022-12-06T04:07:13.627Z,100933.28
2022-12-06T04:10:03.375Z,100938.50
2022-12-06T04:12:54.869Z,100933.28
2022-12-06T04:15:30.714Z,100936.91
2022-12-06T04:18:10.813Z,100936.06
2022-12-06T04:21:16.284Z,100930.81
2022-12-06T04:23:51.396Z,100935.22
2022-12-06T04:26:22.672Z,100925.47
2022-12-06T04:29:11.245Z,100921.09
2022-12-06T04:31:59.147Z,100922.03
2022-12-06T04:34:44.991Z,100916.72
2022-12-06T04:37:30.718Z,100918.66
2022-12-06T04:39:57.555Z,100912.44
2022-12-06T04:42:42.797Z,100909.59
2022-12-06T04:45:10.201Z,100906.16
2022-12-06T04:47:36.972Z,100906.91
2022-12-06T04:50:04.128Z,100907.75
2022-12-06T04:52:35.502Z,100919.19
2022-12-06T04:55:04.657Z,100915.69
2022-12-06T04:57:31.524Z,100916.63
2022-12-06T04:59:58.536Z,100907.00
2022-12-06T05:02:25.535Z,100916.63
2022-12-06T05:04:52.244Z,100919.59
2022-12-06T05:07:19.041Z,100911.59
2022-12-06T05:09:48.948Z,100907.00
2022-12-06T05:12:15.711Z,100913.09
2022-12-06T05:14:42.396Z,100902.53
2022-12-06T05:17:09.187Z,100910.44
2022-12-06T05:19:35.824Z,100907.84
2022-12-06T05:22:02.586Z,100902.53
2022-12-06T05:24:30.548Z,100910.75
2022-12-06T05:26:57.201Z,100910.53
2022-12-06T05:29:24.030Z,100903.59
2022-12-06T05:31:50.861Z,100899.22
2022-12-06T05:34:17.679Z,100907.31
2022-12-06T05:36:52.549Z,100907.31
2022-12-06T05:39:19.170Z,100911.81
2022-12-06T05:41:46.126Z,100910.84
2022-12-06T05:44:12.716Z,100905.63
2022-12-06T05:46:39.412Z,100914.47
2022-12-06T05:49:06.066Z,100901.13
2022-12-06T05:51:33.308Z,100908.06
2022-12-06T06:42:29.660Z,100916.72
2022-12-06T06:44:56.375Z,100908.94
2022-12-06T08:09:13.754Z,100925.03
2022-12-06T09:24:56.211Z,100937.78
2022-12-06T09:27:22.919Z,100934.34
2022-12-06T09:29:53.006Z,100936.34
2022-12-06T09:32:19.689Z,100944.47
2022-12-06T09:34:46.615Z,100932.31
2022-12-06T09:37:14.356Z,100938.25
2022-12-06T09:39:50.828Z,100931.16
2022-12-06T09:42:59.667Z,100936.34
2022-12-06T09:45:57.934Z,100934.66
2022-12-06T09:48:49.625Z,100933.22
2022-12-06T09:52:24.824Z,100933.16
2022-12-06T09:55:32.623Z,100933.44
2022-12-06T09:58:17.777Z,100926.41
2022-12-06T11:10:35.717Z,100902.69
2022-12-06T11:58:37.289Z,100861.72
2022-12-06T12:01:14.425Z,100848.28
2022-12-06T12:03:47.400Z,100854.16
2022-12-06T12:06:29.164Z,100852.66
2022-12-06T12:09:02.958Z,100850.19
2022-12-06T12:11:39.736Z,100859.34
2022-12-06T12:14:26.858Z,100846.31
2022-12-06T12:17:02.053Z,100846.22
2022-12-06T12:19:52.105Z,100848.34
2022-12-06T12:22:30.643Z,100846.53
2022-12-06T12:28:01.377Z,100846.94
2022-12-06T12:30:42.334Z,100842.00
2022-12-06T12:33:19.786Z,100834.31
2022-12-06T12:36:08.485Z,100840.59
2022-12-06T12:38:48.956Z,100840.59
2022-12-06T12:41:42.198Z,100842.97
2022-12-06T12:44:39.263Z,100841.44
2022-12-06T12:47:20.777Z,100839.94
2022-12-06T12:50:22.304Z,100836.50
2022-12-06T12:52:49.665Z,100833.75
2022-12-06T12:55:30.372Z,100825.97
2022-12-06T12:58:00.920Z,100825.00
2022-12-06T13:00:38.518Z,100825.00
2022-12-06T13:03:49.520Z,100818.53
2022-12-06T13:06:07.197Z,100825.56
2022-12-06T13:08:38.892Z,100823.09
2022-12-06T13:11:08.434Z,100817.97
2022-12-06T13:13:49.782Z,100817.78
2022-12-06T13:16:29.275Z,100814.03
2022-12-06T13:18:59.342Z,100815.88
2022-12-06T13:21:41.120Z,100812.03
2022-12-06T13:24:10.733Z,100816.94
2022-12-06T13:26:47.600Z,100814.41
2022-12-06T13:29:34.768Z,100817.25
2022-12-06T13:32:16.250Z,100815.47
2022-12-06T13:35:27.454Z,100811.06
2022-12-06T13:38:03.605Z,100809.38
2022-12-06T14:14:25.898Z,100800.75
2022-12-06T14:17:02.271Z,100798.75
2022-12-06T14:19:38.932Z,100803.44
2022-12-06T14:22:33.801Z,100794.84
2022-12-06T14:25:06.826Z,100792.31
2022-12-06T14:27:47.885Z,100791.63
2022-12-06T14:30:26.260Z,100796.13
2022-12-06T14:32:59.473Z,100793.53
2022-12-06T14:35:35.972Z,100802.56
2022-12-06T14:38:23.041Z,100793.84
2022-12-06T14:41:10.369Z,100805.44
2022-12-06T14:43:38.910Z,100789.84
2022-12-06T14:46:14.676Z,100799.44
2022-12-06T14:49:02.331Z,100804.00
2022-12-06T14:51:42.473Z,100810.94
2022-12-06T14:54:36.457Z,100798.69
2022-12-06T14:57:04.384Z,100797.00
2022-12-06T15:00:11.385Z,100797.16
2022-12-06T15:02:28.160Z,100787.69
2022-12-06T15:04:55.697Z,100784.16
2022-12-06T15:07:42.771Z,100780.00
2022-12-06T15:10:35.160Z,100795.19
2022-12-06T15:13:16.579Z,100785.78
2022-12-06T15:16:01.152Z,100787.31
2022-12-06T15:18:38.989Z,100787.78
2022-12-06T15:21:18.035Z,100781.97
2022-12-06T15:23:54.586Z,100792.72
2022-12-06T15:26:24.560Z,100792.13
2022-12-06T15:28:52.292Z,100787.88
2022-12-06T15:31:28.116Z,100789.59
2022-12-06T15:33:56.038Z,100790.59
2022-12-06T15:36:33.118Z,100790.03
2022-12-06T15:38:59.934Z,100798.03
2022-12-06T15:41:29.198Z,100798.03
2022-12-06T15:43:57.570Z,100800.88
2022-12-06T15:46:28.830Z,100801.72
2022-12-06T15:48:57.416Z,100787.94
2022-12-06T15:51:27.489Z,100781.50
2022-12-06T15:53:57.632Z,100793.94
2022-12-06T15:56:30.002Z,100789.66
2022-12-06T15:58:56.780Z,100782.72
2022-12-06T16:01:37.133Z,100787.19
2022-12-06T16:04:12.682Z,100787.53
2022-12-06T16:06:39.283Z,100788.84
2022-12-06T16:09:06.125Z,100792.28
2022-12-06T16:11:32.769Z,100787.16
2022-12-06T16:13:59.524Z,100795.28
2022-12-06T16:16:26.331Z,100787.59
2022-12-06T16:18:53.837Z,100781.72
2022-12-06T16:21:25.146Z,100797.94
2022-12-06T16:24:16.455Z,100792.88
2022-12-06T16:26:44.972Z,100789.72
2022-12-06T16:29:24.757Z,100790.00
2022-12-06T16:31:55.499Z,100792.06
2022-12-06T16:34:22.486Z,100787.03
2022-12-06T16:37:06.627Z,100780.72
2022-12-06T16:39:35.455Z,100782.94
2022-12-06T16:42:05.150Z,100780.81
2022-12-06T16:44:33.237Z,100784.84
2022-12-06T16:47:00.031Z,100776.38
2022-12-06T16:49:48.412Z,100780.31
2022-12-06T16:52:16.529Z,100778.00
2022-12-06T16:54:43.662Z,100783.31
2022-12-06T16:57:14.973Z,100787.69
2022-12-06T16:59:43.049Z,100785.19
2022-12-06T17:02:40.656Z,100780.22
2022-12-06T17:05:08.296Z,100783.56
2022-12-06T17:07:36.811Z,100778.50
2022-12-06T17:10:04.792Z,100779.53
2022-12-06T17:12:31.495Z,100772.78
2022-12-06T17:15:00.412Z,100775.66
2022-12-06T17:17:29.266Z,100779.59
2022-12-06T17:19:56.451Z,100781.81
2022-12-06T17:22:23.585Z,100782.22
2022-12-06T17:24:50.386Z,100775.00
2022-12-06T17:27:17.298Z,100774.66
2022-12-06T17:29:45.341Z,100781.34
2022-12-06T17:32:13.689Z,100776.59
2022-12-06T17:34:40.462Z,100765.66
2022-12-06T17:37:07.199Z,100756.47
2022-12-06T17:39:34.262Z,100753.53
2022-12-06T17:42:19.955Z,100755.53
2022-12-06T17:44:52.904Z,100758.56
2022-12-06T17:47:20.014Z,100757.84
2022-12-06T17:49:49.842Z,100758.81
2022-12-06T17:52:16.913Z,100757.63
2022-12-06T17:54:44.268Z,100744.94
2022-12-06T17:57:18.353Z,100750.00
2022-12-06T17:59:48.457Z,100747.44
2022-12-06T18:02:26.776Z,100744.00
2022-12-06T18:04:55.278Z,100748.75
2022-12-06T18:07:22.308Z,100745.56
2022-12-06T18:18:12.293Z,100723.22
2022-12-06T20:12:05.367Z,100643.78
2022-12-06T21:54:38.212Z,100506.28
2022-12-06T21:59:49.179Z,100502.56
2022-12-06T22:02:15.903Z,100504.47
2022-12-06T22:04:46.334Z,100502.84
2022-12-06T22:07:12.974Z,100495.66
2022-12-06T22:09:58.084Z,100503.03
2022-12-06T22:12:25.846Z,100492.44
2022-12-06T22:14:52.758Z,100490.72
2022-12-06T22:17:25.385Z,100478.47
2022-12-06T22:19:52.125Z,100480.00
2022-12-06T22:22:19.663Z,100479.06
2022-12-06T22:24:46.780Z,100475.38
2022-12-06T22:27:13.468Z,100473.75
2022-12-06T22:29:40.184Z,100477.16
2022-12-06T22:32:06.803Z,100467.31
2022-12-06T22:34:33.875Z,100461.16
2022-12-06T22:37:00.706Z,100454.91
2022-12-06T22:39:29.996Z,100455.94
2022-12-06T22:41:56.650Z,100454.91
2022-12-06T22:44:23.804Z,100455.78
2022-12-06T22:46:50.602Z,100457.38
2022-12-06T22:49:20.492Z,100450.34
2022-12-06T22:51:50.918Z,100440.72
2022-12-06T22:54:32.921Z,100448.38
2022-12-06T22:57:01.636Z,100446.56
2022-12-06T22:59:28.430Z,100446.50
2022-12-06T23:01:55.130Z,100447.53
2022-12-06T23:04:21.909Z,100443.00
2022-12-06T23:06:48.815Z,100441.09
2022-12-06T23:09:17.089Z,100435.59
2022-12-06T23:11:44.091Z,100439.28
2022-12-06T23:14:12.169Z,100433.72
2022-12-06T23:16:38.936Z,100436.28
2022-12-06T23:19:05.821Z,100428.19
2022-12-06T23:21:36.498Z,100419.41
2022-12-06T23:24:10.294Z,100407.81
2022-12-06T23:26:53.145Z,100415.59
2022-12-06T23:29:21.358Z,100414.75
2022-12-06T23:31:48.870Z,100406.81
2022-12-06T23:34:26.450Z,100404.78
2022-12-06T23:36:53.769Z,100403.84
2022-12-06T23:39:20.501Z,100396.75
2022-12-06T23:41:47.511Z,100383.28
2022-12-06T23:44:14.589Z,100374.38
2022-12-06T23:46:44.166Z,100361.69
2022-12-06T23:49:20.308Z,100366.69
2022-12-06T23:51:48.927Z,100360.16
2022-12-06T23:54:18.376Z,100367.34
2022-12-06T23:56:46.063Z,100368.59
2022-12-06T23:59:16.534Z,100355.41
